createdAt,value
2019-03-09T00:00:55.631Z,80.24
2019-03-09T00:02:03.220Z,80.24
2019-03-09T00:03:07.810Z,79.91
2019-03-09T00:04:10.828Z,80.43
2019-03-09T00:05:13.855Z,80.56
2019-03-09T00:06:16.603Z,80.15
2019-03-09T00:07:26.068Z,79.75
2019-03-09T00:08:28.719Z,79.93
2019-03-09T00:09:31.679Z,79.87
2019-03-09T00:10:39.893Z,80.25
2019-03-09T00:11:42.895Z,80.25
2019-03-09T00:12:45.561Z,80.07
2019-03-09T00:13:48.490Z,80.10
2019-03-09T00:14:51.157Z,80.10
2019-03-09T00:15:53.958Z,80.42
2019-03-09T00:16:56.689Z,80.61
2019-03-09T00:17:59.291Z,80.63
2019-03-09T00:19:06.004Z,80.89
2019-03-09T00:20:09.026Z,80.89
2019-03-09T00:21:12.090Z,80.75
2019-03-09T00:22:15.169Z,80.72
2019-03-09T00:23:36.643Z,80.81
2019-03-09T00:25:10.528Z,80.91
2019-03-09T00:26:24.530Z,80.74
2019-03-09T00:27:46.449Z,80.87
2019-03-09T00:28:54.577Z,80.86
2019-03-09T00:30:12.040Z,80.55
2019-03-09T00:31:39.623Z,80.62
2019-03-09T00:32:42.616Z,80.85
2019-03-09T00:33:45.640Z,80.67
2019-03-09T00:34:55.289Z,80.65
2019-03-09T00:35:59.498Z,80.81
2019-03-09T00:37:02.165Z,80.13
2019-03-09T00:38:04.775Z,80.50
2019-03-09T00:39:07.688Z,80.61
2019-03-09T00:40:10.314Z,80.47
2019-03-09T00:41:13.220Z,80.27
2019-03-09T00:42:19.307Z,80.29
2019-03-09T00:43:23.300Z,80.62
2019-03-09T00:44:25.971Z,80.12
2019-03-09T00:45:28.592Z,80.12
2019-03-09T00:46:32.655Z,79.89
2019-03-09T00:47:35.290Z,79.89
2019-03-09T00:48:38.010Z,79.44
2019-03-09T00:49:40.678Z,79.47
2019-03-09T00:50:50.676Z,79.65
2019-03-09T00:51:53.493Z,78.89
2019-03-09T00:52:56.157Z,79.14
2019-03-09T00:53:58.836Z,79.39
2019-03-09T00:55:02.213Z,78.88
2019-03-09T00:56:05.224Z,78.88
2019-03-09T00:57:08.198Z,78.57
2019-03-09T00:58:10.813Z,78.56
2019-03-09T00:59:14.472Z,78.56
2019-03-09T01:00:17.220Z,78.72
2019-03-09T01:01:19.826Z,78.04
2019-03-09T01:02:22.438Z,78.25
2019-03-09T01:03:25.421Z,78.26
2019-03-09T01:04:28.503Z,78.43
2019-03-09T01:05:31.145Z,78.62
2019-03-09T01:06:33.817Z,78.62
2019-03-09T01:07:36.475Z,78.22
2019-03-09T01:08:39.183Z,77.71
2019-03-09T01:09:42.171Z,77.71
2019-03-09T01:10:48.223Z,77.83
2019-03-09T01:11:50.916Z,77.83
2019-03-09T01:12:53.599Z,77.67
2019-03-09T01:13:57.917Z,77.67
2019-03-09T01:15:00.636Z,77.82
2019-03-09T01:16:06.727Z,77.66
2019-03-09T01:17:09.372Z,77.48
2019-03-09T01:18:12.016Z,77.32
2019-03-09T01:19:14.643Z,77.53
2019-03-09T01:20:23.078Z,77.53
2019-03-09T01:21:25.825Z,77.22
2019-03-09T01:22:28.808Z,77.23
2019-03-09T01:23:31.533Z,77.90
2019-03-09T01:24:37.068Z,76.78
2019-03-09T01:25:39.746Z,76.78
2019-03-09T01:26:42.395Z,77.20
2019-03-09T01:27:47.881Z,77.58
2019-03-09T01:28:51.268Z,77.22
2019-03-09T01:29:53.907Z,77.55
2019-03-09T01:30:56.581Z,77.71
2019-03-09T01:31:59.222Z,77.28
2019-03-09T01:33:01.868Z,76.94
2019-03-09T01:34:04.618Z,77.11
2019-03-09T01:35:07.565Z,77.79
2019-03-09T01:36:10.256Z,77.86
2019-03-09T01:37:13.329Z,77.86
2019-03-09T01:38:15.963Z,77.72
2019-03-09T01:39:18.628Z,78.11
2019-03-09T01:40:21.281Z,78.54
2019-03-09T01:41:24.297Z,79.18
2019-03-09T01:42:27.291Z,79.18
2019-03-09T01:43:29.927Z,79.87
2019-03-09T01:44:33.058Z,81.08
2019-03-09T01:45:36.603Z,80.46
2019-03-09T01:46:40.385Z,80.46
2019-03-09T01:47:43.707Z,80.72
2019-03-09T01:48:47.414Z,80.81
2019-03-09T01:49:50.098Z,81.26
2019-03-09T01:50:52.860Z,82.43
2019-03-09T01:51:55.630Z,82.28
2019-03-09T01:52:58.584Z,82.43
2019-03-09T01:54:01.245Z,83.01
2019-03-09T01:55:06.557Z,83.01
2019-03-09T01:56:09.259Z,83.49
2019-03-09T01:57:12.420Z,84.21
2019-03-09T01:58:18.079Z,85.95
2019-03-09T01:59:24.197Z,86.13
2019-03-09T02:00:27.203Z,86.13
2019-03-09T02:01:29.826Z,86.42
2019-03-09T02:02:32.515Z,86.98
2019-03-09T02:03:35.152Z,87.98
2019-03-09T02:04:37.876Z,89.56
2019-03-09T02:05:40.878Z,90.12
2019-03-09T02:06:43.508Z,89.83
2019-03-09T02:07:46.154Z,89.83
2019-03-09T02:08:53.973Z,89.58
2019-03-09T02:09:56.689Z,90.43
2019-03-09T02:11:02.704Z,90.43
2019-03-09T02:12:05.664Z,89.47
2019-03-09T02:13:11.366Z,89.32
2019-03-09T02:14:16.441Z,89.96
2019-03-09T02:15:19.590Z,90.87
2019-03-09T02:16:22.287Z,91.49
2019-03-09T02:17:27.880Z,92.11
2019-03-09T02:18:30.895Z,91.74
2019-03-09T02:19:33.503Z,92.04
2019-03-09T02:20:36.211Z,92.47
2019-03-09T02:21:38.818Z,91.02
2019-03-09T02:22:41.478Z,91.40
2019-03-09T02:23:44.114Z,91.84
2019-03-09T02:24:47.499Z,91.21
2019-03-09T02:25:50.284Z,91.96
2019-03-09T02:26:53.598Z,91.96
2019-03-09T02:27:57.025Z,93.04
2019-03-09T02:29:01.059Z,93.04
2019-03-09T02:30:05.631Z,93.78
2019-03-09T02:31:08.649Z,93.78
2019-03-09T02:32:11.677Z,92.76
2019-03-09T02:33:14.712Z,93.32
2019-03-09T02:34:17.413Z,93.71
2019-03-09T02:35:20.291Z,93.71
2019-03-09T02:36:23.463Z,94.72
2019-03-09T02:37:26.918Z,94.55
2019-03-09T02:38:49.921Z,94.14
2019-03-09T02:40:14.485Z,94.61
2019-03-09T02:41:17.208Z,95.75
2019-03-09T02:42:20.209Z,95.99
2019-03-09T02:43:22.945Z,96.29
2019-03-09T02:44:26.126Z,96.29
2019-03-09T02:45:30.541Z,97.05
2019-03-09T02:46:33.181Z,96.48
2019-03-09T02:47:35.987Z,96.48
2019-03-09T02:48:38.682Z,96.23
2019-03-09T02:49:41.341Z,95.92
2019-03-09T02:50:59.294Z,95.31
2019-03-09T02:52:01.937Z,95.85
2019-03-09T02:53:05.201Z,96.47
2019-03-09T02:54:07.952Z,96.75
2019-03-09T02:55:10.997Z,96.56
2019-03-09T02:56:13.651Z,96.98
2019-03-09T02:57:16.570Z,97.11
2019-03-09T02:58:19.203Z,97.21
2019-03-09T02:59:22.331Z,96.69
2019-03-09T03:00:26.896Z,96.64
2019-03-09T03:01:51.206Z,97.20
2019-03-09T03:02:57.410Z,96.97
2019-03-09T03:04:00.342Z,96.94
2019-03-09T03:05:03.411Z,96.71
2019-03-09T03:06:06.131Z,97.12
2019-03-09T03:07:09.213Z,97.55
2019-03-09T03:08:11.841Z,97.87
2019-03-09T03:09:15.482Z,97.80
2019-03-09T03:10:18.404Z,98.04
2019-03-09T03:11:21.091Z,98.13
2019-03-09T03:12:23.754Z,97.91
2019-03-09T03:13:26.396Z,98.21
2019-03-09T03:14:30.084Z,97.67
2019-03-09T03:15:32.805Z,97.67
2019-03-09T03:16:36.792Z,97.84
2019-03-09T03:17:39.415Z,98.11
2019-03-09T03:18:42.191Z,98.62
2019-03-09T03:19:44.934Z,98.62
2019-03-09T03:20:47.941Z,98.58
2019-03-09T03:21:50.620Z,98.58
2019-03-09T03:22:53.588Z,98.36
2019-03-09T03:23:56.303Z,99.09
2019-03-09T03:24:59.058Z,99.03
2019-03-09T03:26:01.687Z,99.46
2019-03-09T03:27:04.422Z,99.09
2019-03-09T03:28:07.021Z,99.03
2019-03-09T03:29:09.938Z,98.87
2019-03-09T03:30:13.077Z,99.08
2019-03-09T03:31:16.160Z,99.44
2019-03-09T03:32:18.838Z,99.62
2019-03-09T03:33:21.473Z,99.72
2019-03-09T03:34:24.222Z,99.48
2019-03-09T03:35:27.218Z,99.72
2019-03-09T03:36:29.867Z,99.22
2019-03-09T03:37:32.637Z,99.24
2019-03-09T03:38:35.267Z,99.80
2019-03-09T03:39:37.907Z,99.00
2019-03-09T03:40:40.548Z,99.51
2019-03-09T03:41:43.449Z,99.23
2019-03-09T03:42:46.184Z,99.23
2019-03-09T03:43:49.403Z,99.88
2019-03-09T03:44:52.086Z,99.88
2019-03-09T03:45:58.013Z,99.93
2019-03-09T03:47:02.620Z,99.93
2019-03-09T03:48:08.992Z,99.60
2019-03-09T03:49:14.013Z,99.60
2019-03-09T03:50:16.804Z,99.64
2019-03-09T03:51:19.666Z,100.00
2019-03-09T03:52:22.437Z,100.00
2019-03-09T03:53:25.176Z,100.00
2019-03-09T03:54:28.118Z,100.00
2019-03-09T03:55:30.739Z,100.00
2019-03-09T03:56:33.464Z,100.00
2019-03-09T03:57:36.102Z,100.00
2019-03-09T03:58:38.752Z,100.00
2019-03-09T03:59:42.315Z,100.00
2019-03-09T04:00:45.230Z,100.00
2019-03-09T04:01:48.351Z,100.00
2019-03-09T04:02:50.997Z,100.00
2019-03-09T04:03:53.665Z,100.00
2019-03-09T04:04:57.276Z,100.00
2019-03-09T04:06:03.017Z,100.00
2019-03-09T04:07:07.440Z,100.00
2019-03-09T04:08:10.100Z,100.00
2019-03-09T04:09:12.762Z,100.00
2019-03-09T04:10:15.450Z,100.00
2019-03-09T04:11:18.184Z,100.00
2019-03-09T04:12:21.244Z,100.00
2019-03-09T04:13:24.155Z,100.00
2019-03-09T04:14:26.799Z,100.00
2019-03-09T04:15:29.451Z,100.00
2019-03-09T04:16:32.095Z,100.00
2019-03-09T04:17:34.798Z,100.00
2019-03-09T04:18:37.483Z,100.00
2019-03-09T04:19:40.414Z,100.00
2019-03-09T04:20:43.073Z,100.00
2019-03-09T04:21:45.697Z,100.00
2019-03-09T04:22:48.434Z,100.00
2019-03-09T04:23:51.152Z,100.00
2019-03-09T04:24:54.209Z,100.00
2019-03-09T04:25:57.139Z,100.00
2019-03-09T04:26:59.927Z,100.00
2019-03-09T04:28:02.875Z,100.00
2019-03-09T04:29:06.740Z,100.00
2019-03-09T04:30:09.464Z,100.00
2019-03-09T04:31:12.168Z,100.00
2019-03-09T04:32:15.078Z,100.00
2019-03-09T04:33:18.218Z,100.00
2019-03-09T04:34:20.940Z,100.00
2019-03-09T04:35:23.587Z,100.00
2019-03-09T04:36:26.246Z,100.00
2019-03-09T04:37:28.907Z,100.00
2019-03-09T04:38:31.976Z,100.00
2019-03-09T04:39:34.854Z,100.00
2019-03-09T04:40:37.584Z,100.00
2019-03-09T04:41:41.077Z,100.00
2019-03-09T04:42:43.747Z,100.00
2019-03-09T04:43:46.386Z,100.00
2019-03-09T04:44:49.810Z,100.00
2019-03-09T04:45:52.444Z,100.00
2019-03-09T04:46:55.117Z,100.00
2019-03-09T04:47:57.779Z,100.00
2019-03-09T04:49:04.913Z,100.00
2019-03-09T04:50:07.604Z,100.00
2019-03-09T04:51:10.549Z,100.00
2019-03-09T04:52:13.271Z,100.00
2019-03-09T04:53:16.321Z,100.00
2019-03-09T04:54:19.034Z,100.00
2019-03-09T04:55:21.692Z,100.00
2019-03-09T04:56:24.710Z,100.00
2019-03-09T04:57:27.955Z,100.00
2019-03-09T04:58:31.003Z,100.00
2019-03-09T04:59:33.766Z,100.00
2019-03-09T05:00:36.468Z,100.00
2019-03-09T05:01:39.114Z,100.00
2019-03-09T05:02:41.921Z,100.00
2019-03-09T05:03:44.960Z,100.00
2019-03-09T05:04:48.115Z,100.00
2019-03-09T05:05:50.956Z,100.00
2019-03-09T05:06:53.789Z,100.00
2019-03-09T05:07:56.523Z,100.00
2019-03-09T05:08:59.197Z,100.00
2019-03-09T05:10:02.693Z,100.00
2019-03-09T05:11:05.496Z,100.00
2019-03-09T05:12:08.145Z,100.00
2019-03-09T05:13:10.821Z,100.00
2019-03-09T05:14:13.649Z,100.00
2019-03-09T05:15:16.522Z,100.00
2019-03-09T05:16:20.770Z,100.00
2019-03-09T05:17:23.497Z,100.00
2019-03-09T05:18:26.227Z,100.00
2019-03-09T05:19:28.868Z,100.00
2019-03-09T05:20:31.624Z,100.00
2019-03-09T05:21:34.380Z,100.00
2019-03-09T05:22:40.024Z,100.00
2019-03-09T05:23:42.655Z,100.00
2019-03-09T05:24:45.291Z,100.00
2019-03-09T05:25:47.942Z,100.00
2019-03-09T05:26:51.070Z,100.00
2019-03-09T05:27:53.841Z,100.00
2019-03-09T05:28:56.776Z,100.00
2019-03-09T05:29:59.666Z,100.00
2019-03-09T05:31:02.333Z,100.00
2019-03-09T05:32:05.060Z,100.00
2019-03-09T05:33:08.828Z,100.00
2019-03-09T05:34:11.575Z,100.00
2019-03-09T05:35:15.046Z,100.00
2019-03-09T05:36:17.741Z,100.00
2019-03-09T05:37:20.381Z,100.00
2019-03-09T05:38:23.037Z,100.00
2019-03-09T05:39:25.963Z,100.00
2019-03-09T05:40:28.591Z,100.00
2019-03-09T05:41:31.315Z,100.00
2019-03-09T05:42:34.237Z,100.00
2019-03-09T05:43:37.237Z,100.00
2019-03-09T05:44:39.880Z,100.00
2019-03-09T05:45:42.837Z,100.00
2019-03-09T05:46:45.558Z,100.00
2019-03-09T05:47:48.556Z,100.00
2019-03-09T05:48:51.283Z,100.00
2019-03-09T05:49:54.300Z,100.00
2019-03-09T05:50:56.937Z,100.00
2019-03-09T05:52:01.905Z,100.00
2019-03-09T05:53:04.532Z,100.00
2019-03-09T05:54:07.230Z,100.00
2019-03-09T05:55:12.940Z,100.00
2019-03-09T05:56:15.930Z,100.00
2019-03-09T05:57:18.592Z,100.00
2019-03-09T05:58:21.846Z,100.00
2019-03-09T05:59:24.605Z,100.00
2019-03-09T06:00:27.583Z,100.00
2019-03-09T06:01:30.288Z,100.00
2019-03-09T06:02:32.970Z,100.00
2019-03-09T06:03:35.660Z,100.00
2019-03-09T06:04:38.940Z,100.00
2019-03-09T06:05:41.663Z,100.00
2019-03-09T06:06:48.099Z,100.00
2019-03-09T06:07:50.953Z,100.00
2019-03-09T06:08:54.572Z,100.00
2019-03-09T06:09:57.346Z,100.00
2019-03-09T06:11:00.289Z,100.00
2019-03-09T06:12:03.347Z,100.00
2019-03-09T06:13:06.374Z,100.00
2019-03-09T06:14:11.870Z,100.00
2019-03-09T06:15:14.527Z,100.00
2019-03-09T06:16:17.225Z,100.00
2019-03-09T06:17:20.187Z,100.00
2019-03-09T06:18:22.827Z,100.00
2019-03-09T06:19:25.487Z,100.00
2019-03-09T06:20:28.184Z,100.00
2019-03-09T06:21:30.829Z,100.00
2019-03-09T06:22:33.471Z,100.00
2019-03-09T06:23:36.400Z,100.00
2019-03-09T06:24:39.172Z,100.00
2019-03-09T06:25:41.934Z,100.00
2019-03-09T06:26:44.566Z,100.00
2019-03-09T06:27:47.239Z,100.00
2019-03-09T06:28:49.962Z,100.00
2019-03-09T06:29:53.195Z,100.00
2019-03-09T06:43:42.795Z,100.00
2019-03-09T06:44:45.646Z,100.00
2019-03-09T06:45:54.339Z,100.00
2019-03-09T06:46:57.009Z,100.00
2019-03-09T06:47:59.728Z,100.00
2019-03-09T06:49:02.772Z,100.00
2019-03-09T06:50:05.414Z,100.00
2019-03-09T06:51:08.097Z,100.00
2019-03-09T06:52:10.716Z,100.00
2019-03-09T06:53:13.530Z,100.00
2019-03-09T06:54:16.183Z,100.00
2019-03-09T06:55:20.685Z,100.00
2019-03-09T06:56:23.338Z,100.00
2019-03-09T06:57:25.987Z,100.00
2019-03-09T06:58:28.883Z,100.00
2019-03-09T06:59:31.538Z,100.00
2019-03-09T07:00:34.211Z,100.00
2019-03-09T07:01:37.342Z,100.00
2019-03-09T07:02:40.288Z,100.00
2019-03-09T07:03:43.061Z,100.00
2019-03-09T07:04:45.709Z,100.00
2019-03-09T07:05:51.463Z,100.00
2019-03-09T07:06:54.120Z,100.00
2019-03-09T07:07:57.127Z,100.00
2019-03-09T07:08:59.765Z,100.00
2019-03-09T07:10:02.404Z,100.00
2019-03-09T07:11:05.462Z,100.00
2019-03-09T07:12:08.318Z,100.00
2019-03-09T07:13:11.176Z,100.00
2019-03-09T07:14:15.338Z,100.00
2019-03-09T07:15:17.976Z,100.00
2019-03-09T07:16:20.716Z,100.00
2019-03-09T07:17:23.383Z,100.00
2019-03-09T07:18:26.113Z,100.00
2019-03-09T07:19:29.933Z,100.00
2019-03-09T07:20:37.031Z,100.00
2019-03-09T07:21:37.271Z,100.00
2019-03-09T07:22:40.492Z,100.00
2019-03-09T07:23:43.351Z,100.00
2019-03-09T07:24:46.459Z,100.00
2019-03-09T07:25:49.489Z,99.61
2019-03-09T07:26:52.505Z,99.87
2019-03-09T07:27:55.189Z,99.87
2019-03-09T07:28:57.886Z,99.05
2019-03-09T07:30:00.681Z,99.54
2019-03-09T07:31:03.705Z,99.54
2019-03-09T07:32:10.018Z,100.00
2019-03-09T07:33:12.746Z,99.31
2019-03-09T07:34:20.326Z,99.31
2019-03-09T07:35:24.458Z,99.33
2019-03-09T07:36:27.224Z,99.33
2019-03-09T07:37:31.367Z,98.44
2019-03-09T07:38:33.992Z,98.52
2019-03-09T07:39:38.124Z,98.69
2019-03-09T07:40:40.893Z,98.86
2019-03-09T07:41:43.594Z,99.19
2019-03-09T07:42:48.714Z,99.03
2019-03-09T07:43:51.906Z,99.03
2019-03-09T07:44:54.574Z,99.45
2019-03-09T07:45:57.593Z,99.11
2019-03-09T07:47:01.308Z,98.65
2019-03-09T07:48:05.503Z,98.81
2019-03-09T07:49:08.179Z,99.46
2019-03-09T07:50:11.109Z,99.21
2019-03-09T07:51:13.962Z,99.24
2019-03-09T07:52:17.047Z,99.24
2019-03-09T07:53:20.270Z,98.43
2019-03-09T07:54:25.741Z,98.62
2019-03-09T07:55:28.453Z,98.91
2019-03-09T07:56:31.235Z,99.25
2019-03-09T07:57:34.354Z,99.35
2019-03-09T07:58:41.423Z,99.12
2019-03-09T07:59:47.043Z,99.12
2019-03-09T08:00:49.839Z,98.84
2019-03-09T08:01:56.923Z,98.60
2019-03-09T08:03:00.596Z,98.15
2019-03-09T08:04:03.593Z,98.37
2019-03-09T08:05:07.006Z,98.74
2019-03-09T08:06:10.165Z,98.58
2019-03-09T08:07:14.819Z,98.30
2019-03-09T08:08:21.132Z,98.42
2019-03-09T08:09:28.777Z,97.63
2019-03-09T08:10:34.858Z,97.63
2019-03-09T08:11:39.945Z,97.39
2019-03-09T08:12:42.740Z,97.39
2019-03-09T08:13:47.835Z,96.29
2019-03-09T08:14:52.866Z,95.99
2019-03-09T08:15:55.727Z,95.99
2019-03-09T08:17:08.171Z,95.25
2019-03-09T08:18:10.904Z,95.25
2019-03-09T08:19:13.975Z,96.10
2019-03-09T08:20:17.073Z,95.59
2019-03-09T08:21:21.594Z,95.62
2019-03-09T08:22:26.860Z,95.62
2019-03-09T08:23:30.418Z,95.24
2019-03-09T08:24:33.658Z,95.07
2019-03-09T08:25:36.475Z,94.75
2019-03-09T08:26:39.131Z,95.31
2019-03-09T08:27:43.583Z,95.31
2019-03-09T08:28:48.576Z,95.14
2019-03-09T08:29:54.471Z,95.16
2019-03-09T08:30:57.338Z,95.40
2019-03-09T08:32:05.041Z,95.30
2019-03-09T08:33:05.138Z,95.33
2019-03-09T08:34:08.361Z,95.48
2019-03-09T08:35:11.607Z,95.19
2019-03-09T08:36:14.784Z,96.00
2019-03-09T08:37:17.633Z,96.08
2019-03-09T08:38:20.304Z,95.25
2019-03-09T08:39:23.160Z,95.25
2019-03-09T08:40:26.343Z,96.03
2019-03-09T08:41:29.211Z,96.23
2019-03-09T08:42:34.672Z,96.33
2019-03-09T08:43:37.550Z,96.36
2019-03-09T08:44:41.868Z,95.55
2019-03-09T08:45:44.668Z,95.87
2019-03-09T08:46:47.568Z,95.64
2019-03-09T08:47:53.093Z,95.88
2019-03-09T08:48:55.753Z,95.40
2019-03-09T08:49:58.660Z,94.80
2019-03-09T08:51:01.763Z,94.75
2019-03-09T08:52:06.426Z,95.26
2019-03-09T08:53:09.703Z,95.28
2019-03-09T08:54:12.524Z,95.28
2019-03-09T08:55:17.714Z,95.69
2019-03-09T08:56:19.855Z,95.20
2019-03-09T08:57:26.350Z,95.20
2019-03-09T08:58:29.202Z,95.10
2019-03-09T08:59:32.358Z,94.97
2019-03-09T09:00:35.075Z,93.71
2019-03-09T09:01:39.385Z,93.71
2019-03-09T09:02:42.203Z,93.62
2019-03-09T09:03:44.916Z,93.62
2019-03-09T09:04:47.613Z,93.70
2019-03-09T09:05:50.311Z,93.95
2019-03-09T09:06:52.990Z,93.99
2019-03-09T09:07:55.831Z,93.95
2019-03-09T09:08:58.515Z,94.13
2019-03-09T09:10:09.069Z,94.26
2019-03-09T09:11:12.244Z,93.50
2019-03-09T09:12:15.458Z,94.35
2019-03-09T09:13:18.144Z,94.35
2019-03-09T09:14:20.786Z,94.26
2019-03-09T09:15:23.815Z,94.26
2019-03-09T09:16:28.473Z,92.54
2019-03-09T09:17:33.887Z,92.66
2019-03-09T09:18:36.654Z,92.31
2019-03-09T09:19:42.198Z,91.63
2019-03-09T09:20:48.800Z,90.68
2019-03-09T09:21:51.478Z,90.53
2019-03-09T09:22:54.141Z,90.38
2019-03-09T09:23:57.136Z,91.05
2019-03-09T09:25:01.625Z,91.05
2019-03-09T09:26:10.099Z,90.78
2019-03-09T09:27:11.713Z,90.96
2019-03-09T09:28:15.546Z,90.26
2019-03-09T09:29:19.139Z,90.26
2019-03-09T09:30:22.086Z,91.91
2019-03-09T09:31:24.722Z,91.91
2019-03-09T09:32:28.601Z,92.15
2019-03-09T09:33:37.960Z,92.64
2019-03-09T09:34:41.169Z,92.23
2019-03-09T09:35:46.374Z,92.47
2019-03-09T09:36:49.347Z,90.80
2019-03-09T09:37:52.008Z,91.02
2019-03-09T09:38:56.961Z,90.81
2019-03-09T09:39:59.656Z,91.70
2019-03-09T09:41:02.358Z,91.40
2019-03-09T09:42:09.151Z,90.92
2019-03-09T09:43:12.117Z,90.53
2019-03-09T09:44:15.040Z,90.53
2019-03-09T09:45:17.696Z,91.42
2019-03-09T09:46:20.491Z,91.13
2019-03-09T09:47:23.147Z,91.04
2019-03-09T09:48:29.320Z,91.56
2019-03-09T09:49:36.330Z,91.56
2019-03-09T09:50:38.972Z,91.15
2019-03-09T09:51:41.668Z,90.24
2019-03-09T09:52:49.749Z,90.03
2019-03-09T09:53:53.867Z,89.83
2019-03-09T09:54:59.066Z,90.60
2019-03-09T09:56:02.042Z,89.43
2019-03-09T09:57:05.530Z,89.15
2019-03-09T09:58:08.182Z,89.61
2019-03-09T09:59:14.597Z,88.35
2019-03-09T10:00:17.286Z,88.63
2019-03-09T10:01:20.327Z,88.39
2019-03-09T10:02:23.297Z,88.37
2019-03-09T10:03:26.756Z,88.37
2019-03-09T10:04:32.517Z,87.85
2019-03-09T10:05:35.242Z,87.85
2019-03-09T10:06:40.468Z,88.73
2019-03-09T10:07:43.105Z,88.49
2019-03-09T10:08:46.082Z,87.29
2019-03-09T10:09:51.713Z,87.77
2019-03-09T10:10:54.434Z,87.77
2019-03-09T10:12:03.138Z,87.13
2019-03-09T10:13:08.610Z,86.89
2019-03-09T10:14:14.067Z,87.85
2019-03-09T10:15:18.506Z,87.01
2019-03-09T10:16:21.183Z,88.18
2019-03-09T10:17:26.729Z,86.78
2019-03-09T10:18:31.655Z,86.78
2019-03-09T10:19:42.779Z,87.32
2019-03-09T10:20:46.118Z,86.93
2019-03-09T10:21:49.500Z,86.13
2019-03-09T10:23:03.639Z,86.96
2019-03-09T10:23:57.810Z,86.96
2019-03-09T10:25:00.547Z,86.74
2019-03-09T10:26:04.272Z,86.53
2019-03-09T10:27:10.038Z,86.06
2019-03-09T10:28:13.104Z,86.32
2019-03-09T10:29:15.791Z,85.21
2019-03-09T10:30:18.449Z,84.64
2019-03-09T10:31:21.241Z,85.36
2019-03-09T10:32:31.354Z,85.03
2019-03-09T10:33:34.264Z,85.36
2019-03-09T10:34:37.798Z,85.84
2019-03-09T10:35:40.455Z,85.48
2019-03-09T10:36:43.220Z,85.17
2019-03-09T10:37:45.851Z,84.16
2019-03-09T10:38:49.997Z,85.12
2019-03-09T10:39:52.735Z,83.48
2019-03-09T10:40:55.486Z,83.51
2019-03-09T10:41:58.491Z,84.66
2019-03-09T10:43:01.263Z,84.66
2019-03-09T10:44:03.919Z,84.40
2019-03-09T10:45:07.014Z,84.15
2019-03-09T10:46:10.090Z,83.62
2019-03-09T10:47:12.781Z,84.16
2019-03-09T10:48:16.634Z,84.16
2019-03-09T10:49:22.692Z,83.76
2019-03-09T10:50:26.078Z,81.14
2019-03-09T10:51:29.213Z,82.24
2019-03-09T10:52:33.632Z,82.24
2019-03-09T10:53:36.275Z,82.55
2019-03-09T10:54:38.912Z,81.19
2019-03-09T10:55:42.755Z,82.43
2019-03-09T10:56:47.090Z,80.66
2019-03-09T10:57:54.515Z,81.83
2019-03-09T10:58:57.153Z,81.83
2019-03-09T11:00:00.267Z,81.11
2019-03-09T11:01:06.081Z,80.64
2019-03-09T11:02:10.881Z,80.64
2019-03-09T11:03:18.904Z,81.04
2019-03-09T11:04:27.613Z,80.54
2019-03-09T11:05:30.293Z,81.52
2019-03-09T11:06:33.071Z,81.52
2019-03-09T11:07:38.299Z,80.60
2019-03-09T11:08:41.311Z,80.60
2019-03-09T11:09:47.848Z,81.78
2019-03-09T11:10:51.562Z,80.96
2019-03-09T11:11:54.199Z,80.96
2019-03-09T11:13:00.486Z,80.50
2019-03-09T11:14:03.163Z,81.57
2019-03-09T11:15:05.827Z,81.57
2019-03-09T11:16:12.908Z,80.35
2019-03-09T11:17:15.560Z,80.35
2019-03-09T11:18:18.210Z,80.39
2019-03-09T11:19:20.897Z,80.39
2019-03-09T11:20:23.585Z,80.66
2019-03-09T11:21:26.369Z,79.51
2019-03-09T11:22:29.677Z,80.23
2019-03-09T11:23:34.341Z,79.82
2019-03-09T11:24:36.793Z,79.82
2019-03-09T11:25:39.852Z,79.22
2019-03-09T11:26:42.548Z,80.29
2019-03-09T11:27:45.297Z,80.29
2019-03-09T11:28:47.924Z,80.31
2019-03-09T11:29:50.724Z,80.31
2019-03-09T11:42:51.904Z,79.90
2019-03-09T11:43:54.647Z,77.30
2019-03-09T11:44:57.458Z,78.41
2019-03-09T11:46:00.569Z,78.41
2019-03-09T11:47:03.297Z,78.70
2019-03-09T11:48:06.366Z,79.03
2019-03-09T11:49:09.277Z,78.89
2019-03-09T11:50:12.037Z,76.81
2019-03-09T11:51:14.936Z,77.60
2019-03-09T11:52:29.187Z,77.10
2019-03-09T11:53:32.491Z,77.10
2019-03-09T11:54:38.419Z,77.97
2019-03-09T11:55:41.222Z,77.97
2019-03-09T11:56:50.721Z,78.12
2019-03-09T11:57:53.412Z,79.99
2019-03-09T11:58:56.208Z,79.99
2019-03-09T11:59:59.230Z,80.77
2019-03-09T12:01:04.167Z,80.07
2019-03-09T12:02:12.788Z,80.35
2019-03-09T12:03:15.504Z,80.35
2019-03-09T12:04:18.162Z,80.52
2019-03-09T12:05:20.856Z,79.93
2019-03-09T12:06:23.796Z,80.04
2019-03-09T12:07:26.552Z,79.85
2019-03-09T12:08:29.198Z,79.46
2019-03-09T12:09:32.811Z,79.60
2019-03-09T12:10:35.628Z,79.43
2019-03-09T12:11:41.647Z,79.59
2019-03-09T12:12:45.194Z,78.76
2019-03-09T12:13:48.339Z,79.28
2019-03-09T12:14:51.451Z,79.18
2019-03-09T12:15:56.276Z,78.82
2019-03-09T12:16:59.535Z,78.62
2019-03-09T12:18:02.530Z,78.17
2019-03-09T12:19:05.771Z,78.17
2019-03-09T12:20:11.399Z,76.91
2019-03-09T12:21:14.105Z,78.05
2019-03-09T12:22:19.012Z,76.85
2019-03-09T12:23:21.696Z,77.69
2019-03-09T12:24:28.363Z,78.25
2019-03-09T12:25:31.341Z,78.25
2019-03-09T12:26:34.521Z,78.28
2019-03-09T12:27:40.200Z,78.06
2019-03-09T12:28:43.528Z,78.06
2019-03-09T12:29:46.331Z,77.96
2019-03-09T12:30:49.484Z,78.36
2019-03-09T12:31:52.684Z,78.36
2019-03-09T12:32:57.173Z,78.67
2019-03-09T12:34:00.345Z,78.27
2019-03-09T12:35:02.994Z,78.40
2019-03-09T12:36:05.928Z,78.40
2019-03-09T12:37:11.924Z,78.22
2019-03-09T12:38:15.573Z,78.22
2019-03-09T12:39:19.575Z,77.82
2019-03-09T12:40:22.215Z,77.66
2019-03-09T12:41:24.887Z,77.66
2019-03-09T12:42:28.611Z,76.18
2019-03-09T12:43:31.344Z,74.31
2019-03-09T12:44:34.259Z,72.52
2019-03-09T12:45:40.241Z,71.12
2019-03-09T12:46:46.039Z,70.92
2019-03-09T12:47:48.680Z,72.69
2019-03-09T12:48:54.195Z,72.14
2019-03-09T12:49:56.925Z,72.04
2019-03-09T12:50:59.715Z,72.04
2019-03-09T12:52:02.509Z,72.49
2019-03-09T12:53:05.256Z,73.65
2019-03-09T12:54:08.309Z,74.16
2019-03-09T12:55:13.247Z,74.16
2019-03-09T12:56:18.574Z,73.67
2019-03-09T12:57:22.241Z,74.50
2019-03-09T12:58:24.973Z,74.50
2019-03-09T12:59:27.900Z,74.31
2019-03-09T13:00:32.637Z,73.88
2019-03-09T13:01:37.639Z,74.21
2019-03-09T13:02:45.284Z,74.21
2019-03-09T13:03:49.513Z,74.46
2019-03-09T13:04:52.637Z,73.36
2019-03-09T13:05:57.801Z,72.78
2019-03-09T13:07:00.723Z,73.31
2019-03-09T13:08:03.498Z,73.31
2019-03-09T13:09:07.952Z,71.66
2019-03-09T13:10:10.616Z,71.47
2019-03-09T13:11:15.177Z,71.79
2019-03-09T13:12:18.213Z,72.22
2019-03-09T13:13:21.033Z,72.22
2019-03-09T13:14:30.176Z,72.37
2019-03-09T13:15:28.575Z,72.37
2019-03-09T13:16:34.277Z,73.19
2019-03-09T13:17:37.101Z,72.93
2019-03-09T13:18:40.133Z,72.93
2019-03-09T13:19:42.927Z,73.15
2019-03-09T13:20:48.000Z,73.01
2019-03-09T13:21:50.704Z,73.61
2019-03-09T13:22:53.479Z,73.69
2019-03-09T13:23:56.158Z,73.80
2019-03-09T13:25:03.402Z,73.80
2019-03-09T13:26:06.141Z,72.89
2019-03-09T13:27:08.824Z,73.00
2019-03-09T13:28:11.514Z,73.36
2019-03-09T13:29:17.928Z,72.94
2019-03-09T13:30:20.643Z,72.40
2019-03-09T13:31:23.738Z,73.03
2019-03-09T13:32:28.705Z,72.00
2019-03-09T13:33:33.307Z,72.00
2019-03-09T13:34:38.508Z,72.52
2019-03-09T13:35:41.322Z,72.42
2019-03-09T13:36:44.611Z,71.74
2019-03-09T13:37:54.374Z,71.77
2019-03-09T13:38:57.958Z,71.77
2019-03-09T13:40:00.604Z,73.00
2019-03-09T13:41:03.747Z,73.00
2019-03-09T13:42:06.644Z,73.03
2019-03-09T13:43:09.296Z,72.96
2019-03-09T13:44:11.945Z,72.50
2019-03-09T13:45:15.121Z,72.62
2019-03-09T13:46:18.296Z,72.39
2019-03-09T13:47:21.142Z,72.16
2019-03-09T13:48:26.332Z,71.75
2019-03-09T13:49:29.215Z,71.75
2019-03-09T13:50:34.056Z,72.16
2019-03-09T13:51:36.735Z,71.75
2019-03-09T13:52:42.102Z,68.21
2019-03-09T13:53:47.727Z,68.75
2019-03-09T13:54:50.549Z,67.40
2019-03-09T13:55:53.780Z,66.98
2019-03-09T13:56:57.610Z,67.29
2019-03-09T13:58:00.778Z,66.70
2019-03-09T13:59:04.297Z,66.19
2019-03-09T14:00:08.152Z,65.37